Time;durP1;ratioP1;P1;durP2;ratioP2;P2;SDS_P1;SDS_P2;PMS_P1;PMS_P2;Temp;Humidity;BMP_temperature;BMP_pressure;BME280_temperature;BME280_humidity;BME280_pressure;Samples;Min_cycle;Max_cycle;Signal;HPM_P1;HPM_P2
2022/07/05 00:00:22;;;;;;;0.85;0.70;;;21.90;62.30;;;;;;5118957;27;43460;-61
2022/07/05 00:02:50;;;;;;;0.80;0.80;;;21.90;62.30;;;;;;5121832;27;43575;-61
2022/07/05 00:05:17;;;;;;;0.75;0.75;;;21.90;62.30;;;;;;5121346;27;44010;-61
2022/07/05 00:07:44;;;;;;;0.80;0.80;;;21.90;62.40;;;;;;5121357;27;43418;-61
2022/07/05 00:10:12;;;;;;;0.70;0.70;;;21.90;62.40;;;;;;5120881;27;43487;-61
2022/07/05 00:12:39;;;;;;;1.33;1.00;;;21.80;62.30;;;;;;5121683;27;43617;-61
2022/07/05 00:15:07;;;;;;;0.95;0.95;;;21.80;62.30;;;;;;5120836;27;43895;-61
2022/07/05 00:17:34;;;;;;;0.70;0.70;;;21.80;62.30;;;;;;5120991;27;43992;-61
2022/07/05 00:20:03;;;;;;;0.73;0.70;;;21.80;62.30;;;;;;5120466;27;43440;-61
2022/07/05 00:22:30;;;;;;;0.80;0.80;;;21.80;62.30;;;;;;5118898;27;43559;-61
2022/07/05 00:24:57;;;;;;;0.80;0.80;;;21.80;62.30;;;;;;5115156;27;44027;-61
2022/07/05 00:27:25;;;;;;;0.82;0.80;;;21.80;62.30;;;;;;5120181;27;43508;-61
2022/07/05 00:29:52;;;;;;;0.70;0.70;;;21.80;62.30;;;;;;5119388;27;43463;-61
2022/07/05 00:32:20;;;;;;;1.58;0.85;;;21.80;62.30;;;;;;5121837;27;43572;-61
2022/07/05 00:34:47;;;;;;;1.00;0.95;;;21.80;62.40;;;;;;5118511;27;44109;-61
2022/07/05 00:37:14;;;;;;;0.90;0.90;;;21.80;62.40;;;;;;5121319;27;43932;-61
2022/07/05 00:39:42;;;;;;;0.90;0.90;;;21.70;62.40;;;;;;5120858;27;43434;-61
2022/07/05 00:42:10;;;;;;;0.90;0.90;;;21.70;62.30;;;;;;5123332;27;43590;-61
2022/07/05 00:44:39;;;;;;;1.05;0.93;;;21.80;62.50;;;;;;5124793;27;45004;-61
2022/07/05 00:47:09;;;;;;;0.80;0.80;;;21.70;62.40;;;;;;5125431;27;43985;-61
2022/07/05 00:49:38;;;;;;;0.82;0.82;;;21.70;62.40;;;;;;5123098;27;43422;-61
2022/07/05 00:52:06;;;;;;;0.77;0.77;;;21.70;62.40;;;;;;5123404;27;43612;-61
2022/07/05 00:54:49;;;;;;;0.80;0.80;;;21.70;63.00;;;;;;5123541;27;44969;-61
2022/07/05 00:57:20;;;;;;;0.70;0.70;;;21.70;62.40;;;;;;5123114;27;43720;-61
2022/07/05 00:59:49;;;;;;;0.70;0.70;;;21.70;62.40;;;;;;5130072;27;43516;-61
2022/07/05 01:02:16;;;;;;;0.80;0.80;;;21.70;62.40;;;;;;5117594;27;43612;-61
2022/07/05 01:04:48;;;;;;;0.70;0.70;;;21.70;62.40;;;;;;5121047;27;44077;-61
2022/07/05 01:07:18;;;;;;;0.82;0.82;;;21.70;62.40;;;;;;5123798;27;43463;-61
2022/07/05 01:09:45;;;;;;;0.60;0.60;;;21.70;62.40;;;;;;5118247;27;43363;-61
2022/07/05 01:12:13;;;;;;;0.77;0.77;;;21.60;62.30;;;;;;5123136;27;43634;-61
2022/07/05 01:14:42;;;;;;;0.85;0.80;;;21.60;62.40;;;;;;5104255;27;44983;-61
2022/07/05 01:17:10;;;;;;;1.13;0.95;;;21.70;62.40;;;;;;5123842;27;43423;-61
2022/07/05 01:19:38;;;;;;;1.08;0.90;;;21.60;62.30;;;;;;5124739;27;43404;-61
2022/07/05 01:22:16;;;;;;;0.70;0.70;;;21.60;62.30;;;;;;5124611;27;43599;-61
2022/07/05 01:24:48;;;;;;;0.85;0.85;;;21.60;62.30;;;;;;5121039;27;44738;-61
2022/07/05 01:27:17;;;;;;;1.40;0.80;;;21.60;62.30;;;;;;5124174;27;44118;-61
2022/07/05 01:29:45;;;;;;;1.15;0.80;;;21.60;62.30;;;;;;5124409;27;43429;-61
2022/07/05 01:32:13;;;;;;;0.80;0.80;;;21.60;62.30;;;;;;5122105;27;43630;-61
2022/07/05 01:34:41;;;;;;;0.70;0.70;;;21.60;63.00;;;;;;5121976;27;44999;-61
2022/07/05 01:37:10;;;;;;;0.70;0.70;;;21.60;62.30;;;;;;5124338;27;43767;-61
2022/07/05 01:39:38;;;;;;;0.75;0.75;;;21.60;62.40;;;;;;5123738;27;43441;-61
2022/07/05 01:42:07;;;;;;;1.27;0.93;;;21.60;62.30;;;;;;5123074;27;43611;-61
2022/07/05 01:44:34;;;;;;;0.88;0.88;;;21.60;62.30;;;;;;5115941;27;45343;-61
2022/07/05 01:47:06;;;;;;;0.90;0.90;;;21.60;62.30;;;;;;5122227;27;44141;-61
2022/07/05 01:49:43;;;;;;;0.70;0.70;;;21.50;62.30;;;;;;5124632;27;43467;-61
2022/07/05 01:52:12;;;;;;;1.25;0.90;;;21.50;62.30;;;;;;5120646;27;43507;-61
2022/07/05 01:54:41;;;;;;;0.88;0.88;;;21.50;62.30;;;;;;5122056;27;44929;-61
2022/07/05 01:57:09;;;;;;;0.82;0.82;;;21.50;62.40;;;;;;5122737;27;43431;-61
2022/07/05 01:59:37;;;;;;;0.80;0.80;;;21.50;62.40;;;;;;5129209;27;43343;-61
2022/07/05 02:02:07;;;;;;;1.27;0.80;;;21.50;62.40;;;;;;5121131;27;43710;-61
2022/07/05 02:04:36;;;;;;;0.82;0.75;;;21.50;62.40;;;;;;5122145;27;44050;-61
2022/07/05 02:07:08;;;;;;;0.80;0.80;;;21.50;62.40;;;;;;5119228;27;43790;-61
2022/07/05 02:09:37;;;;;;;0.85;0.85;;;21.50;62.40;;;;;;5122093;27;43425;-61
2022/07/05 02:12:05;;;;;;;0.80;0.80;;;21.50;62.30;;;;;;5123141;27;43437;-61
2022/07/05 02:14:33;;;;;;;1.10;1.00;;;21.50;62.30;;;;;;5122691;27;44918;-61
2022/07/05 02:17:03;;;;;;;1.63;0.80;;;21.50;62.40;;;;;;5121894;27;43415;-61
2022/07/05 02:19:32;;;;;;;0.80;0.80;;;21.50;62.40;;;;;;5121011;27;43551;-61
2022/07/05 02:22:00;;;;;;;0.80;0.80;;;21.40;62.30;;;;;;5120973;27;43509;-61
2022/07/05 02:24:29;;;;;;;0.80;0.80;;;21.50;62.40;;;;;;5121690;27;44941;-61
2022/07/05 02:27:09;;;;;;;1.10;0.85;;;21.50;62.40;;;;;;5121637;27;43535;-61
2022/07/05 02:29:37;;;;;;;0.70;0.70;;;21.40;62.30;;;;;;5121038;27;43472;-61
2022/07/05 02:32:05;;;;;;;1.10;1.10;;;21.40;62.30;;;;;;5122166;27;43597;-61
2022/07/05 02:34:33;;;;;;;0.77;0.77;;;21.40;62.30;;;;;;5120963;27;45263;-61
2022/07/05 02:37:01;;;;;;;1.42;1.25;;;21.40;62.30;;;;;;5122967;27;43457;-61
2022/07/05 02:39:28;;;;;;;0.80;0.80;;;21.40;62.30;;;;;;5122699;27;43369;-61
2022/07/05 02:41:58;;;;;;;0.90;0.85;;;21.40;62.30;;;;;;5120717;27;43580;-61
2022/07/05 02:44:26;;;;;;;0.70;0.70;;;21.40;62.30;;;;;;5123373;27;44941;-61
2022/07/05 02:46:53;;;;;;;0.70;0.70;;;21.40;62.30;;;;;;5121385;27;43425;-61
2022/07/05 02:49:21;;;;;;;0.60;0.60;;;21.40;62.40;;;;;;5120984;27;43439;-61
2022/07/05 02:51:49;;;;;;;1.00;0.90;;;21.40;62.40;;;;;;5121409;27;43559;-61
2022/07/05 02:54:16;;;;;;;0.98;0.90;;;21.40;62.30;;;;;;5121241;27;44144;-61
2022/07/05 02:56:44;;;;;;;0.93;0.93;;;21.40;62.30;;;;;;5120844;27;43475;-61
2022/07/05 02:59:14;;;;;;;0.87;0.87;;;21.30;62.30;;;;;;5129634;27;43467;-61
2022/07/05 03:01:41;;;;;;;0.80;0.80;;;21.30;62.30;;;;;;5121261;27;43561;-61
2022/07/05 03:04:13;;;;;;;0.80;0.80;;;21.30;62.30;;;;;;5119811;27;43799;-61
2022/07/05 03:06:47;;;;;;;1.45;1.05;;;21.30;62.30;;;;;;5118521;27;43494;-61
2022/07/05 03:09:21;;;;;;;0.90;0.90;;;21.30;62.30;;;;;;5117894;27;43456;-61
2022/07/05 03:11:49;;;;;;;0.70;0.70;;;21.30;62.30;;;;;;5121066;27;43731;-61
2022/07/05 03:14:17;;;;;;;0.90;0.90;;;21.30;62.30;;;;;;5112923;27;44685;-61
2022/07/05 03:16:46;;;;;;;0.80;0.80;;;21.30;62.30;;;;;;5118220;27;43993;-61
2022/07/05 03:19:14;;;;;;;1.00;1.00;;;21.30;62.30;;;;;;5121590;27;44164;-61
2022/07/05 03:21:42;;;;;;;0.77;0.77;;;21.30;62.30;;;;;;5112407;27;43565;-61
2022/07/05 03:24:10;;;;;;;1.10;1.10;;;21.30;62.30;;;;;;5116493;27;45049;-61
2022/07/05 03:26:39;;;;;;;0.70;0.70;;;21.20;62.30;;;;;;5119204;27;43459;-61
2022/07/05 03:29:06;;;;;;;1.00;0.85;;;21.30;62.30;;;;;;5121354;27;43393;-61
2022/07/05 03:31:35;;;;;;;0.90;0.90;;;21.30;62.30;;;;;;5120499;27;43444;-60
2022/07/05 03:34:04;;;;;;;0.80;0.80;;;21.30;62.30;;;;;;5122238;27;43899;-61
2022/07/05 03:36:32;;;;;;;0.80;0.80;;;21.20;62.30;;;;;;5119707;27;43948;-61
2022/07/05 03:39:03;;;;;;;0.65;0.65;;;21.20;62.30;;;;;;5120543;27;43440;-61
2022/07/05 03:41:33;;;;;;;0.95;0.95;;;21.20;62.30;;;;;;5124348;27;43601;-60
2022/07/05 03:44:02;;;;;;;0.80;0.80;;;21.20;62.30;;;;;;5113157;27;44038;-61
2022/07/05 03:46:30;;;;;;;1.00;0.80;;;21.20;62.30;;;;;;5119254;27;43470;-61
2022/07/05 03:48:58;;;;;;;0.93;0.90;;;21.20;62.30;;;;;;5122348;27;43485;-61
2022/07/05 03:51:25;;;;;;;0.77;0.77;;;21.20;62.30;;;;;;5121007;27;43560;-61
2022/07/05 03:53:55;;;;;;;0.95;0.80;;;21.20;62.30;;;;;;5119075;27;43787;-61
2022/07/05 03:56:24;;;;;;;0.80;0.80;;;21.20;62.30;;;;;;5119660;27;43768;-61
2022/07/05 03:58:56;;;;;;;0.77;0.77;;;21.20;62.30;;;;;;5126278;27;43464;-61
2022/07/05 04:01:23;;;;;;;0.65;0.65;;;21.20;62.30;;;;;;5122515;27;43563;-61
2022/07/05 04:03:52;;;;;;;0.80;0.80;;;21.20;62.30;;;;;;5117979;27;43818;-61
2022/07/05 04:06:20;;;;;;;0.70;0.70;;;21.20;62.30;;;;;;5121120;27;44207;-61
2022/07/05 04:08:48;;;;;;;0.70;0.70;;;21.20;62.30;;;;;;5121494;27;43386;-61
2022/07/05 04:11:16;;;;;;;0.70;0.70;;;21.20;62.30;;;;;;5121565;27;43595;-61
2022/07/05 04:13:47;;;;;;;0.82;0.82;;;21.10;62.20;;;;;;5117403;27;43781;-61
2022/07/05 04:16:15;;;;;;;0.80;0.80;;;21.10;62.20;;;;;;5119434;27;43956;-61
2022/07/05 04:18:43;;;;;;;1.40;0.93;;;21.10;62.20;;;;;;5120586;27;43451;-61
2022/07/05 04:21:10;;;;;;;0.85;0.85;;;21.10;62.20;;;;;;5119115;27;43427;-61
2022/07/05 04:23:38;;;;;;;0.70;0.70;;;21.10;62.20;;;;;;5118813;27;44062;-61
2022/07/05 04:26:05;;;;;;;1.55;0.90;;;21.10;62.90;;;;;;5119158;27;43649;-61
2022/07/05 04:28:51;;;;;;;0.70;0.70;;;21.10;62.20;;;;;;5120067;27;43443;-61
2022/07/05 04:31:26;;;;;;;0.85;0.85;;;21.10;62.20;;;;;;5118487;27;43492;-56
2022/07/05 04:33:55;;;;;;;0.63;0.63;;;21.10;62.20;;;;;;5119518;27;43915;-61
2022/07/05 04:36:26;;;;;;;0.60;0.60;;;21.10;62.20;;;;;;5112410;27;43555;-61
2022/07/05 04:38:56;;;;;;;0.70;0.70;;;21.10;62.30;;;;;;5119462;27;43437;-61
2022/07/05 04:41:25;;;;;;;0.73;0.73;;;21.10;62.30;;;;;;5117686;27;43624;-61
2022/07/05 04:43:53;;;;;;;0.55;0.55;;;21.10;62.30;;;;;;5121081;27;45192;-61
2022/07/05 04:46:20;;;;;;;0.98;0.90;;;21.10;62.30;;;;;;5119285;27;43947;-61
2022/07/05 04:48:50;;;;;;;0.60;0.60;;;21.10;62.30;;;;;;5119896;27;43370;-61
2022/07/05 04:51:17;;;;;;;0.68;0.68;;;21.00;62.30;;;;;;5117142;27;43970;-61
2022/07/05 04:53:44;;;;;;;0.88;0.88;;;21.10;62.30;;;;;;5120694;27;44056;-61
2022/07/05 04:56:12;;;;;;;1.00;1.00;;;21.10;62.30;;;;;;5120194;27;44043;-61
2022/07/05 04:58:39;;;;;;;0.73;0.73;;;21.00;62.30;;;;;;5130228;27;44089;-61
2022/07/05 05:01:07;;;;;;;0.70;0.70;;;21.00;62.30;;;;;;5119217;27;43485;-61
2022/07/05 05:03:34;;;;;;;0.85;0.85;;;21.00;62.30;;;;;;5120320;27;43790;-61
2022/07/05 05:06:01;;;;;;;0.70;0.70;;;21.00;62.30;;;;;;5120269;27;43457;-61
2022/07/05 05:08:29;;;;;;;0.80;0.80;;;21.00;62.30;;;;;;5121124;27;43465;-61
2022/07/05 05:10:56;;;;;;;0.85;0.80;;;21.00;62.40;;;;;;5118896;27;43622;-61
2022/07/05 05:13:23;;;;;;;0.88;0.88;;;21.00;62.40;;;;;;5121015;27;44311;-61
2022/07/05 05:15:51;;;;;;;0.75;0.75;;;21.00;62.30;;;;;;5119799;27;43525;-61
2022/07/05 05:18:21;;;;;;;0.77;0.77;;;21.00;62.30;;;;;;5121501;27;43415;-61
2022/07/05 05:20:48;;;;;;;1.20;0.82;;;21.00;62.30;;;;;;5118394;27;43639;-61
2022/07/05 05:23:15;;;;;;;1.00;0.80;;;21.00;62.30;;;;;;5119613;27;45124;-61
2022/07/05 05:25:42;;;;;;;0.73;0.73;;;21.00;62.40;;;;;;5120733;27;44004;-61
2022/07/05 05:28:10;;;;;;;0.63;0.63;;;21.00;62.40;;;;;;5123240;27;43500;-61
2022/07/05 05:30:37;;;;;;;0.80;0.80;;;21.00;62.40;;;;;;5121825;27;43544;-61
2022/07/05 05:33:04;;;;;;;0.60;0.60;;;21.00;62.40;;;;;;5111575;27;45059;-61
2022/07/05 05:35:32;;;;;;;0.82;0.65;;;21.00;62.40;;;;;;5123966;27;43471;-61
2022/07/05 05:37:59;;;;;;;0.57;0.57;;;21.00;62.40;;;;;;5124358;27;43408;-61
2022/07/05 05:40:26;;;;;;;0.68;0.68;;;21.00;62.40;;;;;;5121880;27;43666;-61
2022/07/05 05:42:55;;;;;;;0.80;0.80;;;21.00;62.40;;;;;;5122711;27;44919;-61
2022/07/05 05:45:23;;;;;;;0.50;0.50;;;21.00;62.40;;;;;;5118604;27;43464;-61
2022/07/05 05:47:53;;;;;;;0.70;0.70;;;21.00;62.40;;;;;;5124045;27;43436;-61
2022/07/05 05:50:22;;;;;;;0.75;0.75;;;20.90;62.30;;;;;;5122576;27;43623;-61
2022/07/05 05:52:50;;;;;;;0.70;0.70;;;20.90;63.00;;;;;;5122711;27;44976;-61
2022/07/05 05:55:19;;;;;;;0.77;0.70;;;20.90;62.40;;;;;;5123734;27;44150;-61
2022/07/05 05:57:47;;;;;;;0.52;0.52;;;20.90;62.40;;;;;;5128055;27;43458;-61
2022/07/05 06:00:15;;;;;;;0.70;0.70;;;20.90;62.40;;;;;;5123539;27;43559;-61
2022/07/05 06:02:44;;;;;;;0.68;0.68;;;20.90;62.40;;;;;;5123749;27;45123;-61
2022/07/05 06:05:12;;;;;;;1.08;0.98;;;21.00;62.50;;;;;;5122904;27;44008;-61
2022/07/05 06:07:49;;;;;;;0.80;0.80;;;20.90;62.50;;;;;;5125267;27;43521;-61
2022/07/05 06:10:22;;;;;;;0.80;0.80;;;20.90;62.40;;;;;;5124483;27;43567;-61
2022/07/05 06:12:52;;;;;;;0.68;0.63;;;20.90;62.50;;;;;;5122438;27;44550;-61
2022/07/05 06:15:20;;;;;;;0.70;0.70;;;20.90;62.50;;;;;;5123716;27;43492;-61
2022/07/05 06:17:48;;;;;;;0.75;0.68;;;20.90;62.50;;;;;;5121537;27;43378;-61
2022/07/05 06:20:24;;;;;;;0.70;0.70;;;20.90;62.50;;;;;;5123569;27;43603;-61
2022/07/05 06:22:53;;;;;;;1.17;0.85;;;20.90;62.50;;;;;;5123167;27;44991;-61
2022/07/05 06:25:21;;;;;;;0.60;0.60;;;20.90;62.50;;;;;;5122527;27;43973;-61
2022/07/05 06:28:02;;;;;;;0.60;0.60;;;20.90;62.50;;;;;;5122636;27;44049;-61
2022/07/05 06:30:31;;;;;;;0.68;0.68;;;20.90;62.50;;;;;;5123853;27;43479;-61
2022/07/05 06:32:59;;;;;;;0.55;0.55;;;20.90;62.50;;;;;;5122346;27;44001;-61
2022/07/05 06:35:27;;;;;;;0.60;0.60;;;20.90;62.50;;;;;;5121309;27;43521;-61
2022/07/05 06:37:59;;;;;;;0.65;0.65;;;20.90;62.60;;;;;;5123957;27;43440;-61
2022/07/05 06:40:29;;;;;;;0.80;0.80;;;20.90;62.60;;;;;;5122902;27;43551;-61
2022/07/05 06:42:59;;;;;;;0.50;0.50;;;20.90;62.50;;;;;;5123091;27;44080;-61
2022/07/05 06:45:40;;;;;;;0.70;0.60;;;20.90;62.60;;;;;;5121326;27;44325;-61
2022/07/05 06:48:10;;;;;;;0.70;0.70;;;20.90;62.60;;;;;;5122601;27;43490;-61
2022/07/05 06:50:42;;;;;;;1.42;0.60;;;20.90;62.60;;;;;;5123048;27;43568;-61
2022/07/05 06:53:10;;;;;;;0.60;0.60;;;20.90;62.70;;;;;;5120486;27;45043;-61
2022/07/05 06:55:37;;;;;;;0.68;0.68;;;20.90;62.70;;;;;;5121844;27;43881;-61
2022/07/05 06:58:07;;;;;;;1.13;0.70;;;20.90;62.70;;;;;;5131378;27;44021;-61
2022/07/05 07:00:40;;;;;;;0.60;0.57;;;20.90;62.70;;;;;;5120859;27;43565;-61
2022/07/05 07:03:28;;;;;;;0.47;0.47;;;20.90;62.70;;;;;;5120440;27;44701;-61
2022/07/05 07:06:15;;;;;;;0.63;0.63;;;20.90;62.70;;;;;;5123686;27;43473;-61
2022/07/05 07:11:29;;;;;;;0.80;0.68;;;20.90;62.70;;;;;;5117858;27;43519;-60
2022/07/05 07:13:57;;;;;;;1.17;0.60;;;20.90;62.70;;;;;;5122736;27;43821;-62
2022/07/05 07:16:25;;;;;;;0.75;0.57;;;21.00;62.70;;;;;;5122119;27;43404;-61
2022/07/05 07:18:52;;;;;;;0.65;0.65;;;21.00;62.80;;;;;;5121332;27;43442;-62
2022/07/05 07:21:40;;;;;;;1.38;0.70;;;20.90;62.70;;;;;;5122641;27;43504;-61
2022/07/05 07:24:08;;;;;;;0.70;0.70;;;20.90;62.70;;;;;;5121264;27;44976;-62
2022/07/05 07:29:41;;;;;;;0.68;0.65;;;21.00;62.80;;;;;;5057695;28;43415;-61
2022/07/05 07:32:10;;;;;;;1.00;0.80;;;21.00;62.70;;;;;;5058342;28;43694;-61
2022/07/05 07:34:37;;;;;;;0.88;0.50;;;21.00;62.80;;;;;;5088273;27;44958;-61
2022/07/05 07:37:08;;;;;;;0.52;0.52;;;21.00;62.70;;;;;;5121491;27;43891;-61
2022/07/05 07:39:35;;;;;;;0.95;0.95;;;21.00;62.70;;;;;;5122489;27;43440;-61
2022/07/05 07:42:03;;;;;;;0.60;0.60;;;21.00;62.70;;;;;;5121210;27;43533;-61
2022/07/05 07:44:31;;;;;;;0.60;0.60;;;21.00;62.80;;;;;;5111321;27;44038;-61
2022/07/05 07:46:58;;;;;;;1.08;0.52;;;21.00;62.80;;;;;;5121561;27;43528;-61
2022/07/05 07:49:25;;;;;;;0.95;0.60;;;21.00;62.80;;;;;;5121762;27;43460;-61
2022/07/05 07:51:53;;;;;;;2.20;0.70;;;21.00;62.70;;;;;;5120262;27;43614;-61
2022/07/05 07:54:20;;;;;;;0.95;0.57;;;21.00;63.00;;;;;;5121842;27;45306;-61
2022/07/05 07:56:47;;;;;;;0.93;0.65;;;21.00;62.80;;;;;;5121673;27;43604;-61
2022/07/05 07:59:15;;;;;;;1.42;0.50;;;21.00;62.80;;;;;;5125988;27;43463;-62
2022/07/05 08:01:43;;;;;;;0.82;0.70;;;21.00;62.80;;;;;;5121257;27;43619;-61
2022/07/05 08:04:13;;;;;;;0.80;0.80;;;21.00;62.80;;;;;;5118251;27;44741;-62
2022/07/05 08:06:41;;;;;;;0.80;0.77;;;21.00;63.50;;;;;;5119726;27;43521;-62
2022/07/05 08:09:09;;;;;;;0.60;0.55;;;21.00;62.80;;;;;;5122755;27;43429;-63
2022/07/05 08:11:42;;;;;;;0.95;0.70;;;21.10;62.80;;;;;;5120727;27;43430;-62
2022/07/05 08:14:10;;;;;;;0.82;0.70;;;21.10;62.70;;;;;;5120492;27;44053;-62
2022/07/05 08:16:37;;;;;;;0.68;0.60;;;21.10;62.70;;;;;;5121923;27;43412;-62
2022/07/05 08:21:50;;;;;;;0.77;0.57;;;21.10;62.70;;;;;;5119885;27;44018;-62
2022/07/05 08:24:18;;;;;;;1.25;0.80;;;21.10;62.70;;;;;;5122896;27;45081;-63
2022/07/05 08:26:45;;;;;;;1.38;0.80;;;21.10;62.60;;;;;;5120944;27;44058;-62
2022/07/05 08:29:14;;;;;;;0.70;0.70;;;21.10;62.50;;;;;;5122599;27;43465;-63
2022/07/05 08:31:51;;;;;;;0.60;0.47;;;21.20;62.60;;;;;;5116159;27;43540;-63
2022/07/05 08:34:19;;;;;;;1.63;0.63;;;21.10;62.50;;;;;;5120328;27;44670;-62
2022/07/05 08:36:47;;;;;;;2.15;0.77;;;21.10;62.60;;;;;;5121430;27;43464;-62
2022/07/05 08:39:15;;;;;;;0.70;0.70;;;21.10;62.60;;;;;;5122079;27;43557;-62
2022/07/05 08:41:48;;;;;;;0.80;0.60;;;21.10;62.60;;;;;;5119541;27;43477;-62
2022/07/05 08:44:19;;;;;;;0.63;0.63;;;21.10;62.60;;;;;;5119637;27;44912;-62
2022/07/05 08:46:47;;;;;;;0.60;0.60;;;21.10;62.60;;;;;;5119601;27;44032;-63
2022/07/05 08:49:19;;;;;;;2.00;0.88;;;21.10;62.60;;;;;;5120020;27;43568;-62
2022/07/05 08:51:47;;;;;;;;;;;21.20;62.70;;;;;;5118914;27;43504;-62
2022/07/05 08:54:16;;;;;;;0.57;0.43;;;21.10;62.60;;;;;;5114734;27;44042;-62
2022/07/05 08:56:45;;;;;;;0.65;0.57;;;21.10;62.60;;;;;;5118430;27;43483;-62
2022/07/05 08:59:32;;;;;;;1.75;0.75;;;21.20;62.60;;;;;;5119499;27;43477;-62
2022/07/05 09:02:01;;;;;;;0.90;0.80;;;21.20;62.60;;;;;;5120329;27;43618;-62
2022/07/05 09:04:37;;;;;;;0.52;0.38;;;21.20;62.50;;;;;;5116184;27;43786;-62
2022/07/05 09:07:07;;;;;;;0.93;0.50;;;21.20;62.50;;;;;;5124221;27;44280;-62
2022/07/05 09:09:43;;;;;;;1.27;0.60;;;21.20;62.50;;;;;;5124503;27;43471;-62
2022/07/05 09:12:13;;;;;;;0.57;0.40;;;21.10;62.50;;;;;;5123853;27;43489;-61
2022/07/05 09:14:56;;;;;;;1.33;0.55;;;21.20;62.60;;;;;;5123201;27;44976;-62
2022/07/05 09:17:28;;;;;;;1.48;0.70;;;21.20;62.50;;;;;;5124689;27;44232;-62
2022/07/05 09:20:11;;;;;;;0.88;0.70;;;21.20;62.50;;;;;;5124910;27;43456;-62
2022/07/05 09:22:50;;;;;;;1.10;0.60;;;21.20;62.40;;;;;;5121778;27;43506;-61
2022/07/05 09:25:27;;;;;;;0.60;0.60;;;21.30;62.50;;;;;;5129523;27;43811;-63
2022/07/05 09:27:57;;;;;;;1.42;0.68;;;21.30;62.40;;;;;;5128080;27;43493;-62
2022/07/05 09:30:30;;;;;;;2.83;0.80;;;21.30;62.50;;;;;;5121730;27;43519;-62
2022/07/05 09:33:10;;;;;;;0.68;0.50;;;21.30;62.50;;;;;;5124480;27;43487;-62
2022/07/05 09:35:40;;;;;;;1.73;0.60;;;21.20;62.40;;;;;;5123835;27;44099;-62
2022/07/05 09:38:22;;;;;;;1.45;0.85;;;21.20;62.30;;;;;;5122020;27;43447;-62
2022/07/05 09:40:50;;;;;;;0.50;0.43;;;21.30;62.30;;;;;;5121914;27;43432;-62
2022/07/05 09:43:25;;;;;;;0.73;0.68;;;21.30;62.30;;;;;;5118217;27;43606;-62
2022/07/05 09:46:02;;;;;;;0.60;0.55;;;21.30;62.30;;;;;;5122890;27;45128;-61
2022/07/05 09:48:33;;;;;;;1.08;0.68;;;21.30;62.30;;;;;;5119401;27;43422;-62
2022/07/05 09:51:13;;;;;;;0.57;0.50;;;21.30;62.30;;;;;;5116572;27;43439;-61
2022/07/05 09:54:01;;;;;;;0.73;0.63;;;21.30;62.30;;;;;;5121998;27;44030;-62
2022/07/05 09:56:49;;;;;;;0.80;0.57;;;21.30;62.30;;;;;;5120044;27;43791;-62
2022/07/05 09:59:19;;;;;;;0.60;0.60;;;21.30;62.20;;;;;;5121674;27;43633;-62
2022/07/05 10:01:48;;;;;;;0.77;0.50;;;21.30;62.20;;;;;;5122999;27;43432;-62
2022/07/05 10:04:16;;;;;;;0.75;0.50;;;21.30;62.20;;;;;;5124634;27;43516;-62
2022/07/05 10:06:45;;;;;;;1.33;0.70;;;21.30;62.30;;;;;;5123035;27;44940;-62
2022/07/05 10:09:14;;;;;;;0.63;0.63;;;21.30;62.30;;;;;;5122347;27;43540;-62
2022/07/05 10:11:44;;;;;;;0.53;0.50;;;21.30;62.30;;;;;;5122067;27;43886;-62
2022/07/05 10:14:17;;;;;;;1.00;0.57;;;21.40;62.30;;;;;;5119814;27;43516;-63
2022/07/05 10:17:01;;;;;;;1.00;0.50;;;21.40;62.30;;;;;;5122875;27;45140;-63
2022/07/05 10:19:35;;;;;;;0.40;0.40;;;21.40;62.30;;;;;;5121879;27;43469;-62
2022/07/05 10:22:04;;;;;;;2.92;0.60;;;21.40;62.20;;;;;;5121203;27;43493;-61
2022/07/05 10:24:48;;;;;;;2.55;0.40;;;21.40;62.20;;;;;;5118810;27;43537;-63
2022/07/05 10:27:17;;;;;;;1.08;0.65;;;21.40;62.30;;;;;;5120242;27;45066;-63
2022/07/05 10:29:45;;;;;;;1.13;0.73;;;21.40;62.30;;;;;;5122566;27;43413;-62
2022/07/05 10:32:16;;;;;;;0.82;0.65;;;21.40;62.40;;;;;;5120722;27;43555;-62
2022/07/05 10:34:46;;;;;;;0.75;0.60;;;21.40;62.40;;;;;;5123526;27;43598;-63
2022/07/05 10:37:29;;;;;;;1.23;0.50;;;21.50;62.40;;;;;;5118885;27;43894;-63
2022/07/05 10:39:59;;;;;;;0.88;0.65;;;21.50;62.50;;;;;;5122753;27;43522;-63
2022/07/05 10:42:32;;;;;;;0.98;0.63;;;21.50;62.40;;;;;;5122964;27;43431;-62
2022/07/05 10:45:00;;;;;;;1.73;0.70;;;21.50;62.40;;;;;;5120240;27;43559;-63
2022/07/05 10:47:29;;;;;;;0.82;0.52;;;21.50;62.40;;;;;;5117844;27;43751;-62
2022/07/05 10:50:07;;;;;;;1.10;0.60;;;21.50;62.50;;;;;;5123049;27;43399;-62
2022/07/05 10:52:35;;;;;;;2.15;0.80;;;21.50;62.40;;;;;;5123292;27;43518;-62
2022/07/05 10:55:22;;;;;;;1.50;0.80;;;21.50;62.50;;;;;;5119153;27;43572;-62
2022/07/05 10:58:28;;;;;;;1.17;0.88;;;21.60;62.50;;;;;;5117400;27;43762;-62
2022/07/05 11:01:23;;;;;;;1.45;0.93;;;21.50;62.40;;;;;;5076710;28;43413;-63
2022/07/05 11:04:04;;;;;;;1.48;0.68;;;21.60;62.50;;;;;;5078266;28;43476;-62
2022/07/05 11:06:38;;;;;;;0.93;0.68;;;21.50;62.50;;;;;;5111952;27;43562;-62
2022/07/05 11:09:13;;;;;;;1.65;0.90;;;21.50;62.60;;;;;;5117206;27;43786;-63
2022/07/05 11:11:44;;;;;;;1.75;0.65;;;21.50;62.60;;;;;;5121258;27;43440;-63
2022/07/05 11:14:34;;;;;;;0.95;0.65;;;21.50;62.60;;;;;;5116368;27;43997;-60
2022/07/05 11:17:16;;;;;;;1.83;0.70;;;21.50;62.70;;;;;;5121317;27;43622;-62
2022/07/05 11:20:25;;;;;;;1.60;0.70;;;21.60;62.60;;;;;;5122287;27;44167;-62
2022/07/05 11:23:05;;;;;;;1.05;0.63;;;21.60;62.50;;;;;;5120756;27;43423;-61
2022/07/05 11:25:35;;;;;;;0.60;0.60;;;21.60;62.50;;;;;;5123281;27;43413;-63
2022/07/05 11:28:06;;;;;;;0.60;0.60;;;21.60;62.50;;;;;;5122382;27;43627;-62
2022/07/05 11:30:48;;;;;;;1.05;0.60;;;21.60;62.50;;;;;;5119712;27;44766;-62
2022/07/05 11:33:34;;;;;;;1.52;0.70;;;21.60;62.50;;;;;;5113607;27;43439;-62
2022/07/05 11:36:04;;;;;;;1.13;0.80;;;21.70;62.50;;;;;;5120791;27;43381;-62
2022/07/05 11:38:31;;;;;;;1.57;0.50;;;21.70;62.60;;;;;;5121235;27;43387;-62
2022/07/05 11:41:19;;;;;;;2.47;0.88;;;21.70;62.50;;;;;;5115197;27;43982;-63
2022/07/05 11:43:56;;;;;;;0.82;0.75;;;21.70;62.50;;;;;;5111646;27;43984;-63
2022/07/05 11:46:24;;;;;;;1.05;0.70;;;21.70;62.30;;;;;;5112887;27;43587;-62
2022/07/05 11:49:11;;;;;;;1.67;0.80;;;21.80;62.60;;;;;;5123534;27;43490;-63
2022/07/05 11:51:39;;;;;;;1.52;0.80;;;21.80;62.40;;;;;;5121173;27;43806;-62
2022/07/05 11:54:09;;;;;;;1.30;0.50;;;21.80;62.30;;;;;;5119598;27;43792;-62
2022/07/05 11:56:44;;;;;;;1.30;0.63;;;21.80;62.30;;;;;;5120155;27;43482;-62
2022/07/05 11:59:21;;;;;;;1.10;0.60;;;21.80;62.20;;;;;;5127469;27;43608;-62
2022/07/05 12:01:50;;;;;;;2.15;0.90;;;21.80;62.30;;;;;;5118933;27;44106;-61
2022/07/05 12:04:26;;;;;;;2.67;0.90;;;21.80;62.20;;;;;;5113331;27;43413;-62
2022/07/05 12:06:55;;;;;;;1.63;0.73;;;21.80;62.20;;;;;;5121964;27;43490;-62
2022/07/05 12:15:08;;;;;;;1.15;0.63;;;21.80;62.20;;;;;;5116560;27;43497;-62
2022/07/05 12:17:37;;;;;;;1.67;0.52;;;21.80;62.10;;;;;;5119095;27;43507;-61
2022/07/05 12:20:06;;;;;;;2.00;0.50;;;21.80;62.10;;;;;;5122092;27;43563;-62
2022/07/05 12:22:39;;;;;;;0.85;0.60;;;21.80;62.10;;;;;;5121391;27;44033;-62
2022/07/05 12:25:10;;;;;;;0.73;0.57;;;21.80;62.00;;;;;;5121195;27;43465;-62
2022/07/05 12:27:38;;;;;;;;;;;21.80;62.00;;;;;;5120033;27;43513;-62
2022/07/05 12:30:09;;;;;;;0.68;0.55;;;21.90;62.00;;;;;;5121758;27;43433;-62
2022/07/05 12:32:56;;;;;;;1.13;0.63;;;21.80;62.00;;;;;;5120471;27;44287;-62
2022/07/05 12:35:36;;;;;;;2.35;0.80;;;21.90;62.00;;;;;;5119418;27;43964;-62
2022/07/05 12:38:09;;;;;;;1.00;0.70;;;21.90;62.10;;;;;;5118400;27;43435;-63
2022/07/05 12:40:38;;;;;;;0.65;0.60;;;21.90;62.00;;;;;;5120860;27;43497;-62
2022/07/05 12:43:17;;;;;;;0.98;0.73;;;21.90;62.00;;;;;;5121101;27;45057;-62
2022/07/05 12:46:07;;;;;;;1.75;0.80;;;22.00;62.00;;;;;;5118618;27;44160;-60
2022/07/05 12:48:36;;;;;;;1.27;0.68;;;22.00;61.90;;;;;;5121510;27;43462;-61
2022/07/05 12:51:05;;;;;;;1.17;0.80;;;22.00;62.00;;;;;;5119060;27;44014;-60
2022/07/05 12:59:58;;;;;;;1.48;0.73;;;22.00;61.90;;;;;;5113208;27;43447;-61
2022/07/05 13:02:46;;;;;;;1.27;0.80;;;22.00;61.80;;;;;;5118302;27;43479;-59
2022/07/05 13:05:22;;;;;;;1.27;0.80;;;22.00;61.80;;;;;;5118838;27;44925;-60
2022/07/05 13:07:54;;;;;;;1.73;0.80;;;22.00;61.70;;;;;;5119733;27;44193;-60
2022/07/05 13:10:25;;;;;;;1.23;0.80;;;22.00;61.70;;;;;;5120890;27;43488;-60
2022/07/05 13:12:53;;;;;;;1.98;0.80;;;22.10;61.60;;;;;;5118928;27;43627;-60
2022/07/05 13:15:20;;;;;;;1.15;0.70;;;22.10;61.60;;;;;;5120803;27;44036;-60
2022/07/05 13:17:48;;;;;;;1.02;0.75;;;22.10;61.40;;;;;;5120304;27;43968;-60
2022/07/05 13:20:17;;;;;;;0.65;0.60;;;22.10;61.40;;;;;;5120804;27;43427;-60
2022/07/05 13:22:46;;;;;;;0.73;0.70;;;22.10;61.30;;;;;;5117219;27;43603;-60
2022/07/05 13:25:14;;;;;;;1.58;0.85;;;22.20;61.30;;;;;;5121346;27;44091;-60
2022/07/05 13:27:42;;;;;;;1.38;0.73;;;22.20;61.90;;;;;;5120516;27;43951;-60